sensor_id;sensor_type;location;lat;lon;timestamp;P1;durP1;ratioP1;P2;durP2;ratioP2
78563;SDS011;67856;47.754;19.088;2023-04-24T00:00:14;2.63;;;2.10;;
78563;SDS011;67856;47.754;19.088;2023-04-24T00:03:17;2.78;;;2.10;;
78563;SDS011;67856;47.754;19.088;2023-04-24T00:06:23;3.50;;;2.33;;
78563;SDS011;67856;47.754;19.088;2023-04-24T00:09:25;3.10;;;2.27;;
78563;SDS011;67856;47.754;19.088;2023-04-24T00:12:28;3.05;;;2.13;;
78563;SDS011;67856;47.754;19.088;2023-04-24T00:15:30;3.10;;;2.30;;
78563;SDS011;67856;47.754;19.088;2023-04-24T00:18:33;2.97;;;2.40;;
78563;SDS011;67856;47.754;19.088;2023-04-24T00:21:35;2.97;;;2.23;;
78563;SDS011;67856;47.754;19.088;2023-04-24T00:24:38;3.37;;;2.47;;
78563;SDS011;67856;47.754;19.088;2023-04-24T00:27:41;3.10;;;2.58;;
78563;SDS011;67856;47.754;19.088;2023-04-24T00:30:43;2.83;;;2.10;;
78563;SDS011;67856;47.754;19.088;2023-04-24T00:33:45;3.38;;;2.30;;
78563;SDS011;67856;47.754;19.088;2023-04-24T00:36:48;3.13;;;2.53;;
78563;SDS011;67856;47.754;19.088;2023-04-24T00:39:54;2.60;;;2.30;;
78563;SDS011;67856;47.754;19.088;2023-04-24T00:42:56;3.05;;;2.20;;
78563;SDS011;67856;47.754;19.088;2023-04-24T00:45:59;4.35;;;2.30;;
78563;SDS011;67856;47.754;19.088;2023-04-24T00:49:04;3.42;;;2.50;;
78563;SDS011;67856;47.754;19.088;2023-04-24T00:52:07;2.40;;;2.00;;
78563;SDS011;67856;47.754;19.088;2023-04-24T00:55:10;3.00;;;1.97;;
78563;SDS011;67856;47.754;19.088;2023-04-24T00:58:13;3.17;;;2.30;;
78563;SDS011;67856;47.754;19.088;2023-04-24T01:01:15;2.50;;;2.00;;
78563;SDS011;67856;47.754;19.088;2023-04-24T01:04:18;2.70;;;2.20;;
78563;SDS011;67856;47.754;19.088;2023-04-24T01:07:20;2.73;;;2.20;;
78563;SDS011;67856;47.754;19.088;2023-04-24T01:10:25;2.40;;;1.97;;
78563;SDS011;67856;47.754;19.088;2023-04-24T01:13:29;2.97;;;2.10;;
78563;SDS011;67856;47.754;19.088;2023-04-24T01:16:31;3.10;;;2.42;;
78563;SDS011;67856;47.754;19.088;2023-04-24T01:19:35;3.10;;;2.25;;
78563;SDS011;67856;47.754;19.088;2023-04-24T01:22:39;3.27;;;2.40;;
78563;SDS011;67856;47.754;19.088;2023-04-24T01:25:42;2.40;;;2.00;;
78563;SDS011;67856;47.754;19.088;2023-04-24T01:28:44;3.40;;;2.20;;
78563;SDS011;67856;47.754;19.088;2023-04-24T01:31:47;3.13;;;2.40;;
78563;SDS011;67856;47.754;19.088;2023-04-24T01:34:50;2.50;;;2.10;;
78563;SDS011;67856;47.754;19.088;2023-04-24T01:37:52;2.27;;;2.07;;
78563;SDS011;67856;47.754;19.088;2023-04-24T01:40:55;3.00;;;2.40;;
78563;SDS011;67856;47.754;19.088;2023-04-24T01:43:59;3.17;;;2.30;;
78563;SDS011;67856;47.754;19.088;2023-04-24T01:47:01;2.70;;;2.20;;
78563;SDS011;67856;47.754;19.088;2023-04-24T01:50:04;3.25;;;2.33;;
78563;SDS011;67856;47.754;19.088;2023-04-24T01:53:07;2.77;;;2.10;;
78563;SDS011;67856;47.754;19.088;2023-04-24T01:56:10;2.40;;;2.07;;
78563;SDS011;67856;47.754;19.088;2023-04-24T01:59:13;2.45;;;2.05;;
78563;SDS011;67856;47.754;19.088;2023-04-24T02:02:17;2.33;;;1.92;;
78563;SDS011;67856;47.754;19.088;2023-04-24T02:05:20;2.75;;;2.20;;
78563;SDS011;67856;47.754;19.088;2023-04-24T02:08:22;2.83;;;2.30;;
78563;SDS011;67856;47.754;19.088;2023-04-24T02:11:25;2.90;;;2.10;;
78563;SDS011;67856;47.754;19.088;2023-04-24T02:14:27;2.30;;;1.80;;
78563;SDS011;67856;47.754;19.088;2023-04-24T02:17:30;3.05;;;2.30;;
78563;SDS011;67856;47.754;19.088;2023-04-24T02:20:32;2.67;;;2.10;;
78563;SDS011;67856;47.754;19.088;2023-04-24T02:23:37;3.67;;;2.40;;
78563;SDS011;67856;47.754;19.088;2023-04-24T02:26:39;2.73;;;2.40;;
78563;SDS011;67856;47.754;19.088;2023-04-24T02:29:42;2.60;;;2.00;;
78563;SDS011;67856;47.754;19.088;2023-04-24T02:32:44;2.80;;;2.17;;
78563;SDS011;67856;47.754;19.088;2023-04-24T02:35:47;3.03;;;2.10;;
78563;SDS011;67856;47.754;19.088;2023-04-24T02:38:49;2.70;;;1.90;;
78563;SDS011;67856;47.754;19.088;2023-04-24T02:41:52;2.90;;;2.37;;
78563;SDS011;67856;47.754;19.088;2023-04-24T02:44:54;2.50;;;2.20;;
78563;SDS011;67856;47.754;19.088;2023-04-24T02:47:56;2.83;;;2.15;;
78563;SDS011;67856;47.754;19.088;2023-04-24T02:50:59;3.47;;;2.47;;
78563;SDS011;67856;47.754;19.088;2023-04-24T02:54:01;3.23;;;2.20;;
78563;SDS011;67856;47.754;19.088;2023-04-24T02:57:04;3.27;;;2.37;;
78563;SDS011;67856;47.754;19.088;2023-04-24T03:00:06;3.72;;;2.92;;
78563;SDS011;67856;47.754;19.088;2023-04-24T03:03:10;2.83;;;2.10;;
78563;SDS011;67856;47.754;19.088;2023-04-24T03:06:13;2.90;;;2.28;;
78563;SDS011;67856;47.754;19.088;2023-04-24T03:09:15;3.20;;;2.50;;
78563;SDS011;67856;47.754;19.088;2023-04-24T03:12:18;2.53;;;1.93;;
78563;SDS011;67856;47.754;19.088;2023-04-24T03:15:20;3.08;;;2.33;;
78563;SDS011;67856;47.754;19.088;2023-04-24T03:18:23;2.60;;;2.15;;
78563;SDS011;67856;47.754;19.088;2023-04-24T03:21:26;2.55;;;2.33;;
78563;SDS011;67856;47.754;19.088;2023-04-24T03:24:29;3.30;;;2.40;;
78563;SDS011;67856;47.754;19.088;2023-04-24T03:27:33;2.80;;;2.37;;
78563;SDS011;67856;47.754;19.088;2023-04-24T03:30:38;2.92;;;2.28;;
78563;SDS011;67856;47.754;19.088;2023-04-24T03:33:42;2.40;;;2.00;;
78563;SDS011;67856;47.754;19.088;2023-04-24T03:36:44;2.83;;;2.17;;
78563;SDS011;67856;47.754;19.088;2023-04-24T03:39:49;3.83;;;2.67;;
78563;SDS011;67856;47.754;19.088;2023-04-24T03:42:57;3.20;;;2.20;;
78563;SDS011;67856;47.754;19.088;2023-04-24T03:46:00;2.97;;;2.30;;
78563;SDS011;67856;47.754;19.088;2023-04-24T03:49:04;2.80;;;2.20;;
78563;SDS011;67856;47.754;19.088;2023-04-24T03:52:10;2.28;;;1.90;;
78563;SDS011;67856;47.754;19.088;2023-04-24T03:55:13;2.77;;;2.30;;
78563;SDS011;67856;47.754;19.088;2023-04-24T03:58:20;3.33;;;2.63;;
78563;SDS011;67856;47.754;19.088;2023-04-24T04:01:22;2.92;;;2.30;;
78563;SDS011;67856;47.754;19.088;2023-04-24T04:04:32;3.00;;;2.40;;
78563;SDS011;67856;47.754;19.088;2023-04-24T04:07:35;3.75;;;2.67;;
78563;SDS011;67856;47.754;19.088;2023-04-24T04:10:37;5.07;;;3.20;;
78563;SDS011;67856;47.754;19.088;2023-04-24T04:13:40;4.33;;;2.70;;
78563;SDS011;67856;47.754;19.088;2023-04-24T04:16:42;4.90;;;2.45;;
78563;SDS011;67856;47.754;19.088;2023-04-24T04:19:46;7.07;;;2.40;;
78563;SDS011;67856;47.754;19.088;2023-04-24T04:22:48;4.63;;;2.40;;
78563;SDS011;67856;47.754;19.088;2023-04-24T04:25:57;7.10;;;2.50;;
78563;SDS011;67856;47.754;19.088;2023-04-24T04:29:08;3.87;;;2.47;;
78563;SDS011;67856;47.754;19.088;2023-04-24T04:32:16;4.43;;;2.45;;
78563;SDS011;67856;47.754;19.088;2023-04-24T04:35:18;2.92;;;2.28;;
78563;SDS011;67856;47.754;19.088;2023-04-24T04:38:24;7.22;;;2.70;;
78563;SDS011;67856;47.754;19.088;2023-04-24T04:41:36;4.43;;;2.73;;
78563;SDS011;67856;47.754;19.088;2023-04-24T04:44:39;5.97;;;2.53;;
78563;SDS011;67856;47.754;19.088;2023-04-24T04:47:46;5.57;;;2.60;;
78563;SDS011;67856;47.754;19.088;2023-04-24T04:50:49;6.65;;;2.85;;
78563;SDS011;67856;47.754;19.088;2023-04-24T04:53:52;6.30;;;2.60;;
78563;SDS011;67856;47.754;19.088;2023-04-24T04:56:54;3.60;;;2.30;;
78563;SDS011;67856;47.754;19.088;2023-04-24T04:59:57;7.17;;;2.67;;
78563;SDS011;67856;47.754;19.088;2023-04-24T05:03:12;6.03;;;2.45;;
78563;SDS011;67856;47.754;19.088;2023-04-24T05:06:20;4.70;;;2.80;;
78563;SDS011;67856;47.754;19.088;2023-04-24T05:09:25;4.38;;;2.72;;
78563;SDS011;67856;47.754;19.088;2023-04-24T05:12:34;3.40;;;2.43;;
78563;SDS011;67856;47.754;19.088;2023-04-24T05:15:37;6.17;;;2.90;;
78563;SDS011;67856;47.754;19.088;2023-04-24T05:18:40;5.32;;;3.35;;
78563;SDS011;67856;47.754;19.088;2023-04-24T05:21:45;5.55;;;3.50;;
78563;SDS011;67856;47.754;19.088;2023-04-24T05:24:48;5.13;;;3.60;;
78563;SDS011;67856;47.754;19.088;2023-04-24T05:28:13;4.87;;;3.33;;
78563;SDS011;67856;47.754;19.088;2023-04-24T05:31:20;7.87;;;3.90;;
78563;SDS011;67856;47.754;19.088;2023-04-24T05:34:32;6.32;;;3.35;;
78563;SDS011;67856;47.754;19.088;2023-04-24T05:37:34;5.28;;;3.38;;
78563;SDS011;67856;47.754;19.088;2023-04-24T05:40:38;5.78;;;3.40;;
78563;SDS011;67856;47.754;19.088;2023-04-24T05:43:40;11.50;;;5.70;;
78563;SDS011;67856;47.754;19.088;2023-04-24T05:46:44;6.40;;;3.57;;
78563;SDS011;67856;47.754;19.088;2023-04-24T05:49:47;10.05;;;3.35;;
78563;SDS011;67856;47.754;19.088;2023-04-24T05:52:49;8.55;;;3.80;;
78563;SDS011;67856;47.754;19.088;2023-04-24T05:55:58;8.23;;;3.75;;
78563;SDS011;67856;47.754;19.088;2023-04-24T05:59:02;6.57;;;3.60;;
78563;SDS011;67856;47.754;19.088;2023-04-24T06:02:05;9.67;;;3.70;;
78563;SDS011;67856;47.754;19.088;2023-04-24T06:05:08;9.00;;;3.72;;
78563;SDS011;67856;47.754;19.088;2023-04-24T06:08:11;6.03;;;3.72;;
78563;SDS011;67856;47.754;19.088;2023-04-24T06:11:15;8.55;;;3.95;;
78563;SDS011;67856;47.754;19.088;2023-04-24T06:14:18;7.77;;;4.10;;
78563;SDS011;67856;47.754;19.088;2023-04-24T06:17:47;8.63;;;3.70;;
78563;SDS011;67856;47.754;19.088;2023-04-24T06:20:51;7.80;;;3.58;;
78563;SDS011;67856;47.754;19.088;2023-04-24T06:23:54;6.82;;;3.63;;
78563;SDS011;67856;47.754;19.088;2023-04-24T06:26:58;7.93;;;3.78;;
78563;SDS011;67856;47.754;19.088;2023-04-24T06:30:03;8.67;;;4.00;;
78563;SDS011;67856;47.754;19.088;2023-04-24T06:33:07;19.40;;;4.00;;
78563;SDS011;67856;47.754;19.088;2023-04-24T06:36:22;8.70;;;4.20;;
78563;SDS011;67856;47.754;19.088;2023-04-24T06:39:24;8.60;;;4.38;;
78563;SDS011;67856;47.754;19.088;2023-04-24T06:42:27;12.25;;;4.55;;
78563;SDS011;67856;47.754;19.088;2023-04-24T06:45:30;9.20;;;4.47;;
78563;SDS011;67856;47.754;19.088;2023-04-24T06:48:34;10.57;;;4.37;;
78563;SDS011;67856;47.754;19.088;2023-04-24T06:51:36;13.52;;;4.63;;
78563;SDS011;67856;47.754;19.088;2023-04-24T06:54:41;7.03;;;4.50;;
78563;SDS011;67856;47.754;19.088;2023-04-24T06:57:43;10.32;;;4.53;;
78563;SDS011;67856;47.754;19.088;2023-04-24T07:00:46;16.27;;;4.60;;
78563;SDS011;67856;47.754;19.088;2023-04-24T07:03:49;8.97;;;4.20;;
78563;SDS011;67856;47.754;19.088;2023-04-24T07:06:52;12.30;;;4.75;;
78563;SDS011;67856;47.754;19.088;2023-04-24T07:09:56;9.98;;;4.88;;
78563;SDS011;67856;47.754;19.088;2023-04-24T07:12:59;10.23;;;4.60;;
78563;SDS011;67856;47.754;19.088;2023-04-24T07:16:02;11.27;;;4.43;;
78563;SDS011;67856;47.754;19.088;2023-04-24T07:19:04;8.80;;;4.10;;
78563;SDS011;67856;47.754;19.088;2023-04-24T07:22:08;9.02;;;4.40;;
78563;SDS011;67856;47.754;19.088;2023-04-24T07:25:13;8.48;;;4.22;;
78563;SDS011;67856;47.754;19.088;2023-04-24T07:28:16;11.07;;;5.00;;
78563;SDS011;67856;47.754;19.088;2023-04-24T07:31:19;9.60;;;4.30;;
78563;SDS011;67856;47.754;19.088;2023-04-24T07:34:23;7.63;;;4.17;;
78563;SDS011;67856;47.754;19.088;2023-04-24T07:37:25;10.55;;;5.15;;
78563;SDS011;67856;47.754;19.088;2023-04-24T07:40:28;13.85;;;5.38;;
78563;SDS011;67856;47.754;19.088;2023-04-24T07:43:30;12.07;;;5.18;;
78563;SDS011;67856;47.754;19.088;2023-04-24T07:46:33;9.67;;;5.50;;
78563;SDS011;67856;47.754;19.088;2023-04-24T07:49:35;11.27;;;5.70;;
78563;SDS011;67856;47.754;19.088;2023-04-24T07:52:37;10.05;;;5.60;;
78563;SDS011;67856;47.754;19.088;2023-04-24T07:55:40;15.85;;;6.13;;
78563;SDS011;67856;47.754;19.088;2023-04-24T07:58:44;13.70;;;5.47;;
78563;SDS011;67856;47.754;19.088;2023-04-24T08:01:49;15.60;;;5.80;;
78563;SDS011;67856;47.754;19.088;2023-04-24T08:04:52;12.50;;;6.20;;
78563;SDS011;67856;47.754;19.088;2023-04-24T08:08:01;13.57;;;6.13;;
78563;SDS011;67856;47.754;19.088;2023-04-24T08:11:04;10.43;;;5.72;;
78563;SDS011;67856;47.754;19.088;2023-04-24T08:14:07;14.85;;;4.95;;
78563;SDS011;67856;47.754;19.088;2023-04-24T08:17:10;13.03;;;6.50;;
78563;SDS011;67856;47.754;19.088;2023-04-24T08:20:13;12.87;;;5.13;;
78563;SDS011;67856;47.754;19.088;2023-04-24T08:26:32;13.63;;;5.35;;
78563;SDS011;67856;47.754;19.088;2023-04-24T08:29:35;12.32;;;5.50;;
78563;SDS011;67856;47.754;19.088;2023-04-24T08:32:41;13.50;;;5.83;;
78563;SDS011;67856;47.754;19.088;2023-04-24T08:35:43;11.43;;;5.50;;
78563;SDS011;67856;47.754;19.088;2023-04-24T08:38:46;16.77;;;6.10;;
78563;SDS011;67856;47.754;19.088;2023-04-24T08:41:48;12.80;;;5.55;;
78563;SDS011;67856;47.754;19.088;2023-04-24T08:44:51;12.65;;;5.32;;
78563;SDS011;67856;47.754;19.088;2023-04-24T08:47:53;14.07;;;5.73;;
78563;SDS011;67856;47.754;19.088;2023-04-24T08:50:57;15.13;;;5.50;;
78563;SDS011;67856;47.754;19.088;2023-04-24T08:54:00;17.70;;;5.50;;
78563;SDS011;67856;47.754;19.088;2023-04-24T08:57:04;15.05;;;5.47;;
78563;SDS011;67856;47.754;19.088;2023-04-24T09:00:12;11.88;;;5.22;;
78563;SDS011;67856;47.754;19.088;2023-04-24T09:03:15;12.53;;;5.07;;
78563;SDS011;67856;47.754;19.088;2023-04-24T09:11:51;10.63;;;5.95;;
78563;SDS011;67856;47.754;19.088;2023-04-24T09:14:56;19.27;;;5.45;;
78563;SDS011;67856;47.754;19.088;2023-04-24T09:17:59;20.67;;;5.60;;
78563;SDS011;67856;47.754;19.088;2023-04-24T09:21:02;20.27;;;5.80;;
78563;SDS011;67856;47.754;19.088;2023-04-24T09:24:07;13.23;;;5.23;;
78563;SDS011;67856;47.754;19.088;2023-04-24T09:27:16;14.15;;;5.60;;
78563;SDS011;67856;47.754;19.088;2023-04-24T09:30:21;11.85;;;5.30;;
78563;SDS011;67856;47.754;19.088;2023-04-24T09:33:24;12.43;;;5.38;;
78563;SDS011;67856;47.754;19.088;2023-04-24T09:36:31;14.70;;;5.10;;
78563;SDS011;67856;47.754;19.088;2023-04-24T09:39:39;13.47;;;5.30;;
78563;SDS011;67856;47.754;19.088;2023-04-24T09:42:46;30.17;;;6.10;;
78563;SDS011;67856;47.754;19.088;2023-04-24T09:45:55;15.00;;;5.57;;
78563;SDS011;67856;47.754;19.088;2023-04-24T09:49:07;14.88;;;5.80;;
78563;SDS011;67856;47.754;19.088;2023-04-24T09:52:14;17.90;;;6.00;;
78563;SDS011;67856;47.754;19.088;2023-04-24T09:55:18;23.90;;;6.10;;
78563;SDS011;67856;47.754;19.088;2023-04-24T09:58:25;18.13;;;6.22;;
78563;SDS011;67856;47.754;19.088;2023-04-24T10:01:32;20.50;;;5.82;;
78563;SDS011;67856;47.754;19.088;2023-04-24T10:04:35;22.00;;;6.28;;
78563;SDS011;67856;47.754;19.088;2023-04-24T10:07:38;22.30;;;6.77;;
78563;SDS011;67856;47.754;19.088;2023-04-24T10:10:41;24.03;;;6.70;;
78563;SDS011;67856;47.754;19.088;2023-04-24T10:13:47;20.88;;;6.60;;
78563;SDS011;67856;47.754;19.088;2023-04-24T10:16:50;28.70;;;6.28;;
78563;SDS011;67856;47.754;19.088;2023-04-24T10:19:55;29.63;;;6.68;;
78563;SDS011;67856;47.754;19.088;2023-04-24T10:22:59;16.67;;;6.53;;
78563;SDS011;67856;47.754;19.088;2023-04-24T10:26:02;19.23;;;6.57;;
78563;SDS011;67856;47.754;19.088;2023-04-24T10:29:05;20.67;;;6.85;;
78563;SDS011;67856;47.754;19.088;2023-04-24T10:32:11;15.15;;;5.93;;
78563;SDS011;67856;47.754;19.088;2023-04-24T10:35:14;20.40;;;6.13;;
78563;SDS011;67856;47.754;19.088;2023-04-24T10:38:27;20.73;;;5.93;;
78563;SDS011;67856;47.754;19.088;2023-04-24T10:41:33;18.27;;;6.40;;
78563;SDS011;67856;47.754;19.088;2023-04-24T10:44:39;13.70;;;6.15;;
78563;SDS011;67856;47.754;19.088;2023-04-24T10:47:42;18.27;;;6.22;;
78563;SDS011;67856;47.754;19.088;2023-04-24T10:50:47;23.52;;;6.15;;
78563;SDS011;67856;47.754;19.088;2023-04-24T10:53:55;15.20;;;6.20;;
78563;SDS011;67856;47.754;19.088;2023-04-24T11:00:20;15.95;;;6.15;;
78563;SDS011;67856;47.754;19.088;2023-04-24T11:03:30;18.40;;;6.03;;
78563;SDS011;67856;47.754;19.088;2023-04-24T11:06:35;16.60;;;5.72;;
78563;SDS011;67856;47.754;19.088;2023-04-24T11:09:39;17.27;;;5.50;;
78563;SDS011;67856;47.754;19.088;2023-04-24T11:12:45;13.33;;;5.57;;
78563;SDS011;67856;47.754;19.088;2023-04-24T11:22:18;21.45;;;5.88;;
78563;SDS011;67856;47.754;19.088;2023-04-24T11:25:22;13.07;;;5.37;;
78563;SDS011;67856;47.754;19.088;2023-04-24T11:28:26;11.40;;;5.37;;
78563;SDS011;67856;47.754;19.088;2023-04-24T11:31:34;13.75;;;5.30;;
78563;SDS011;67856;47.754;19.088;2023-04-24T11:34:57;14.48;;;5.40;;
78563;SDS011;67856;47.754;19.088;2023-04-24T11:38:07;14.02;;;5.45;;
78563;SDS011;67856;47.754;19.088;2023-04-24T11:41:25;14.03;;;5.40;;
78563;SDS011;67856;47.754;19.088;2023-04-24T11:44:28;14.73;;;5.53;;
78563;SDS011;67856;47.754;19.088;2023-04-24T11:47:31;11.90;;;5.20;;
78563;SDS011;67856;47.754;19.088;2023-04-24T11:50:36;13.23;;;5.50;;
78563;SDS011;67856;47.754;19.088;2023-04-24T11:53:39;14.05;;;5.80;;
78563;SDS011;67856;47.754;19.088;2023-04-24T11:56:46;13.77;;;5.53;;
78563;SDS011;67856;47.754;19.088;2023-04-24T11:59:49;20.73;;;5.33;;
78563;SDS011;67856;47.754;19.088;2023-04-24T12:03:02;15.95;;;5.85;;
78563;SDS011;67856;47.754;19.088;2023-04-24T12:06:08;10.15;;;5.88;;
78563;SDS011;67856;47.754;19.088;2023-04-24T12:09:11;12.70;;;5.88;;
78563;SDS011;67856;47.754;19.088;2023-04-24T12:12:19;15.80;;;5.70;;
78563;SDS011;67856;47.754;19.088;2023-04-24T12:15:22;15.63;;;5.60;;
78563;SDS011;67856;47.754;19.088;2023-04-24T12:18:24;9.88;;;5.45;;
78563;SDS011;67856;47.754;19.088;2023-04-24T12:21:27;10.05;;;5.50;;
78563;SDS011;67856;47.754;19.088;2023-04-24T12:24:32;11.07;;;5.47;;
78563;SDS011;67856;47.754;19.088;2023-04-24T12:27:34;11.83;;;5.70;;
78563;SDS011;67856;47.754;19.088;2023-04-24T12:30:41;14.03;;;5.43;;
78563;SDS011;67856;47.754;19.088;2023-04-24T12:33:46;10.95;;;5.43;;
78563;SDS011;67856;47.754;19.088;2023-04-24T12:36:49;14.77;;;5.28;;
78563;SDS011;67856;47.754;19.088;2023-04-24T12:40:08;12.63;;;5.28;;
78563;SDS011;67856;47.754;19.088;2023-04-24T12:43:15;14.53;;;5.17;;
78563;SDS011;67856;47.754;19.088;2023-04-24T12:46:21;11.07;;;4.93;;
78563;SDS011;67856;47.754;19.088;2023-04-24T12:49:24;11.40;;;5.20;;
78563;SDS011;67856;47.754;19.088;2023-04-24T12:52:26;11.57;;;4.90;;
78563;SDS011;67856;47.754;19.088;2023-04-24T12:55:30;12.10;;;4.40;;
78563;SDS011;67856;47.754;19.088;2023-04-24T12:58:32;14.70;;;4.67;;
78563;SDS011;67856;47.754;19.088;2023-04-24T13:01:35;16.63;;;4.20;;
78563;SDS011;67856;47.754;19.088;2023-04-24T13:04:37;11.05;;;4.40;;
78563;SDS011;67856;47.754;19.088;2023-04-24T13:07:40;20.33;;;4.78;;
78563;SDS011;67856;47.754;19.088;2023-04-24T13:10:43;12.63;;;4.72;;
78563;SDS011;67856;47.754;19.088;2023-04-24T13:13:46;11.13;;;4.37;;
78563;SDS011;67856;47.754;19.088;2023-04-24T13:16:48;13.83;;;4.50;;
78563;SDS011;67856;47.754;19.088;2023-04-24T13:19:51;15.65;;;5.10;;
78563;SDS011;67856;47.754;19.088;2023-04-24T13:22:56;21.33;;;5.00;;
78563;SDS011;67856;47.754;19.088;2023-04-24T13:25:58;20.30;;;5.50;;
78563;SDS011;67856;47.754;19.088;2023-04-24T13:29:01;15.40;;;5.03;;
78563;SDS011;67856;47.754;19.088;2023-04-24T13:32:03;16.23;;;5.20;;
78563;SDS011;67856;47.754;19.088;2023-04-24T13:35:07;15.75;;;4.82;;
78563;SDS011;67856;47.754;19.088;2023-04-24T13:38:10;13.32;;;5.82;;
78563;SDS011;67856;47.754;19.088;2023-04-24T13:41:12;13.93;;;5.47;;
78563;SDS011;67856;47.754;19.088;2023-04-24T13:44:15;12.27;;;5.43;;
78563;SDS011;67856;47.754;19.088;2023-04-24T13:47:18;11.87;;;4.90;;
78563;SDS011;67856;47.754;19.088;2023-04-24T13:50:21;12.38;;;4.75;;
78563;SDS011;67856;47.754;19.088;2023-04-24T13:53:23;14.52;;;4.82;;
78563;SDS011;67856;47.754;19.088;2023-04-24T13:56:26;14.10;;;4.50;;
78563;SDS011;67856;47.754;19.088;2023-04-24T13:59:28;11.53;;;4.30;;
78563;SDS011;67856;47.754;19.088;2023-04-24T14:02:31;11.83;;;4.43;;
78563;SDS011;67856;47.754;19.088;2023-04-24T14:05:33;11.40;;;4.60;;
78563;SDS011;67856;47.754;19.088;2023-04-24T14:08:39;14.55;;;5.03;;
78563;SDS011;67856;47.754;19.088;2023-04-24T14:11:41;14.13;;;5.18;;
78563;SDS011;67856;47.754;19.088;2023-04-24T14:14:44;20.10;;;5.37;;
78563;SDS011;67856;47.754;19.088;2023-04-24T14:17:47;9.80;;;4.90;;
78563;SDS011;67856;47.754;19.088;2023-04-24T14:20:50;15.45;;;4.88;;
78563;SDS011;67856;47.754;19.088;2023-04-24T14:23:52;14.93;;;4.78;;
78563;SDS011;67856;47.754;19.088;2023-04-24T14:26:54;13.00;;;4.70;;
78563;SDS011;67856;47.754;19.088;2023-04-24T14:29:58;11.83;;;4.57;;
78563;SDS011;67856;47.754;19.088;2023-04-24T14:33:00;11.93;;;4.53;;
78563;SDS011;67856;47.754;19.088;2023-04-24T14:36:03;14.00;;;4.70;;
78563;SDS011;67856;47.754;19.088;2023-04-24T14:39:07;11.25;;;4.53;;
78563;SDS011;67856;47.754;19.088;2023-04-24T14:42:10;11.82;;;4.40;;
78563;SDS011;67856;47.754;19.088;2023-04-24T14:45:12;9.77;;;4.60;;
78563;SDS011;67856;47.754;19.088;2023-04-24T14:48:14;9.37;;;4.47;;
78563;SDS011;67856;47.754;19.088;2023-04-24T14:51:18;11.48;;;4.90;;
78563;SDS011;67856;47.754;19.088;2023-04-24T14:54:20;11.20;;;4.30;;
78563;SDS011;67856;47.754;19.088;2023-04-24T14:57:25;18.30;;;4.95;;
78563;SDS011;67856;47.754;19.088;2023-04-24T15:00:28;11.87;;;4.47;;
78563;SDS011;67856;47.754;19.088;2023-04-24T15:03:30;11.50;;;4.40;;
78563;SDS011;67856;47.754;19.088;2023-04-24T15:06:33;10.02;;;4.40;;
78563;SDS011;67856;47.754;19.088;2023-04-24T15:09:35;11.05;;;4.47;;
78563;SDS011;67856;47.754;19.088;2023-04-24T15:12:38;11.57;;;4.45;;
78563;SDS011;67856;47.754;19.088;2023-04-24T15:15:40;9.77;;;5.20;;
78563;SDS011;67856;47.754;19.088;2023-04-24T15:18:43;11.23;;;4.30;;
78563;SDS011;67856;47.754;19.088;2023-04-24T15:21:45;11.20;;;4.30;;
78563;SDS011;67856;47.754;19.088;2023-04-24T15:24:48;8.63;;;4.13;;
78563;SDS011;67856;47.754;19.088;2023-04-24T15:27:50;15.18;;;4.70;;
78563;SDS011;67856;47.754;19.088;2023-04-24T15:30:52;12.30;;;4.57;;
78563;SDS011;67856;47.754;19.088;2023-04-24T15:33:55;13.60;;;4.40;;
78563;SDS011;67856;47.754;19.088;2023-04-24T15:36:58;12.35;;;4.35;;
78563;SDS011;67856;47.754;19.088;2023-04-24T15:40:00;11.55;;;4.63;;
78563;SDS011;67856;47.754;19.088;2023-04-24T15:43:06;10.00;;;4.47;;
78563;SDS011;67856;47.754;19.088;2023-04-24T15:46:08;10.70;;;4.30;;
78563;SDS011;67856;47.754;19.088;2023-04-24T15:49:12;9.50;;;4.30;;
78563;SDS011;67856;47.754;19.088;2023-04-24T15:52:14;10.00;;;4.30;;
78563;SDS011;67856;47.754;19.088;2023-04-24T15:55:17;11.98;;;4.80;;
78563;SDS011;67856;47.754;19.088;2023-04-24T15:58:19;9.73;;;4.75;;
78563;SDS011;67856;47.754;19.088;2023-04-24T16:01:22;13.10;;;5.20;;
78563;SDS011;67856;47.754;19.088;2023-04-24T16:04:25;13.27;;;5.40;;
78563;SDS011;67856;47.754;19.088;2023-04-24T16:07:29;11.40;;;4.97;;
78563;SDS011;67856;47.754;19.088;2023-04-24T16:10:32;11.75;;;5.20;;
78563;SDS011;67856;47.754;19.088;2023-04-24T16:13:35;14.60;;;5.80;;
78563;SDS011;67856;47.754;19.088;2023-04-24T16:16:37;13.87;;;5.77;;
78563;SDS011;67856;47.754;19.088;2023-04-24T16:19:39;12.27;;;5.87;;
78563;SDS011;67856;47.754;19.088;2023-04-24T16:22:42;15.13;;;6.00;;
78563;SDS011;67856;47.754;19.088;2023-04-24T16:25:44;12.68;;;6.00;;
78563;SDS011;67856;47.754;19.088;2023-04-24T16:28:47;18.00;;;6.45;;
78563;SDS011;67856;47.754;19.088;2023-04-24T16:31:50;13.97;;;5.90;;
78563;SDS011;67856;47.754;19.088;2023-04-24T16:34:53;19.33;;;5.67;;
78563;SDS011;67856;47.754;19.088;2023-04-24T16:37:56;12.48;;;5.90;;
78563;SDS011;67856;47.754;19.088;2023-04-24T16:40:59;12.82;;;5.72;;
78563;SDS011;67856;47.754;19.088;2023-04-24T16:44:02;13.07;;;5.40;;
78563;SDS011;67856;47.754;19.088;2023-04-24T16:47:05;9.60;;;5.37;;
78563;SDS011;67856;47.754;19.088;2023-04-24T16:50:08;14.40;;;5.60;;
78563;SDS011;67856;47.754;19.088;2023-04-24T16:53:11;11.90;;;5.28;;
78563;SDS011;67856;47.754;19.088;2023-04-24T16:56:14;11.27;;;5.55;;
78563;SDS011;67856;47.754;19.088;2023-04-24T16:59:17;14.65;;;5.72;;
78563;SDS011;67856;47.754;19.088;2023-04-24T17:02:19;13.47;;;5.80;;
78563;SDS011;67856;47.754;19.088;2023-04-24T17:05:22;11.70;;;5.17;;
78563;SDS011;67856;47.754;19.088;2023-04-24T17:08:24;13.18;;;5.47;;
78563;SDS011;67856;47.754;19.088;2023-04-24T17:11:26;7.38;;;4.68;;
78563;SDS011;67856;47.754;19.088;2023-04-24T17:14:33;10.27;;;5.35;;
78563;SDS011;67856;47.754;19.088;2023-04-24T17:17:35;11.03;;;4.93;;
78563;SDS011;67856;47.754;19.088;2023-04-24T17:20:38;10.10;;;4.93;;
78563;SDS011;67856;47.754;19.088;2023-04-24T17:23:41;10.98;;;4.82;;
78563;SDS011;67856;47.754;19.088;2023-04-24T17:26:43;12.73;;;5.15;;
78563;SDS011;67856;47.754;19.088;2023-04-24T17:29:47;9.82;;;4.90;;
78563;SDS011;67856;47.754;19.088;2023-04-24T17:32:50;11.80;;;4.63;;
78563;SDS011;67856;47.754;19.088;2023-04-24T17:35:53;12.73;;;5.03;;
78563;SDS011;67856;47.754;19.088;2023-04-24T17:38:56;11.65;;;4.88;;
78563;SDS011;67856;47.754;19.088;2023-04-24T17:41:58;10.02;;;5.00;;
78563;SDS011;67856;47.754;19.088;2023-04-24T17:45:03;7.75;;;4.65;;
78563;SDS011;67856;47.754;19.088;2023-04-24T17:48:06;11.33;;;4.70;;
78563;SDS011;67856;47.754;19.088;2023-04-24T17:51:08;9.33;;;4.50;;
78563;SDS011;67856;47.754;19.088;2023-04-24T17:54:11;10.80;;;4.65;;
78563;SDS011;67856;47.754;19.088;2023-04-24T17:57:14;9.50;;;4.45;;
78563;SDS011;67856;47.754;19.088;2023-04-24T18:00:17;8.50;;;4.85;;
78563;SDS011;67856;47.754;19.088;2023-04-24T18:03:19;10.33;;;4.70;;
78563;SDS011;67856;47.754;19.088;2023-04-24T18:06:22;8.80;;;4.60;;
78563;SDS011;67856;47.754;19.088;2023-04-24T18:09:25;9.70;;;5.05;;
78563;SDS011;67856;47.754;19.088;2023-04-24T18:12:27;13.38;;;5.03;;
78563;SDS011;67856;47.754;19.088;2023-04-24T18:15:30;8.13;;;4.55;;
78563;SDS011;67856;47.754;19.088;2023-04-24T18:19:00;10.23;;;4.87;;
78563;SDS011;67856;47.754;19.088;2023-04-24T18:22:02;8.33;;;4.97;;